sensor_id;sensor_type;location;lat;lon;timestamp;P1;durP1;ratioP1;P2;durP2;ratioP2
17436;SDS011;8836;52.272;5.134;2022-07-23T00:00:39;2.22;;;1.83;;
17436;SDS011;8836;52.272;5.134;2022-07-23T00:03:07;1.83;;;1.52;;
17436;SDS011;8836;52.272;5.134;2022-07-23T00:05:34;1.80;;;1.60;;
17436;SDS011;8836;52.272;5.134;2022-07-23T00:08:02;1.98;;;1.77;;
17436;SDS011;8836;52.272;5.134;2022-07-23T00:10:29;2.17;;;1.80;;
17436;SDS011;8836;52.272;5.134;2022-07-23T00:12:56;1.73;;;1.50;;
17436;SDS011;8836;52.272;5.134;2022-07-23T00:15:23;2.60;;;2.13;;
17436;SDS011;8836;52.272;5.134;2022-07-23T00:17:50;3.45;;;1.90;;
17436;SDS011;8836;52.272;5.134;2022-07-23T00:20:18;1.95;;;1.50;;
17436;SDS011;8836;52.272;5.134;2022-07-23T00:22:46;3.28;;;1.58;;
17436;SDS011;8836;52.272;5.134;2022-07-23T00:25:13;2.05;;;1.52;;
17436;SDS011;8836;52.272;5.134;2022-07-23T00:27:40;1.88;;;1.50;;
17436;SDS011;8836;52.272;5.134;2022-07-23T00:30:09;2.42;;;1.50;;
17436;SDS011;8836;52.272;5.134;2022-07-23T00:32:44;3.15;;;1.55;;
17436;SDS011;8836;52.272;5.134;2022-07-23T00:35:13;2.40;;;1.40;;
17436;SDS011;8836;52.272;5.134;2022-07-23T00:37:41;1.50;;;1.40;;
17436;SDS011;8836;52.272;5.134;2022-07-23T00:40:09;1.63;;;1.40;;
17436;SDS011;8836;52.272;5.134;2022-07-23T00:42:37;1.90;;;1.50;;
17436;SDS011;8836;52.272;5.134;2022-07-23T00:45:06;2.13;;;1.50;;
17436;SDS011;8836;52.272;5.134;2022-07-23T00:47:34;1.65;;;1.55;;
17436;SDS011;8836;52.272;5.134;2022-07-23T00:50:02;2.03;;;1.40;;
17436;SDS011;8836;52.272;5.134;2022-07-23T00:52:31;1.60;;;1.40;;
17436;SDS011;8836;52.272;5.134;2022-07-23T00:55:01;1.45;;;1.35;;
17436;SDS011;8836;52.272;5.134;2022-07-23T00:57:30;1.98;;;1.45;;
17436;SDS011;8836;52.272;5.134;2022-07-23T00:59:57;1.55;;;1.25;;
17436;SDS011;8836;52.272;5.134;2022-07-23T01:02:24;1.65;;;1.25;;
17436;SDS011;8836;52.272;5.134;2022-07-23T01:04:51;1.13;;;1.02;;
17436;SDS011;8836;52.272;5.134;2022-07-23T01:07:19;1.25;;;1.13;;
17436;SDS011;8836;52.272;5.134;2022-07-23T01:09:47;1.52;;;1.30;;
17436;SDS011;8836;52.272;5.134;2022-07-23T01:12:18;1.20;;;1.10;;
17436;SDS011;8836;52.272;5.134;2022-07-23T01:14:46;1.45;;;1.17;;
17436;SDS011;8836;52.272;5.134;2022-07-23T01:17:20;1.50;;;1.40;;
17436;SDS011;8836;52.272;5.134;2022-07-23T01:19:47;2.83;;;1.60;;
17436;SDS011;8836;52.272;5.134;2022-07-23T01:22:15;1.45;;;1.35;;
17436;SDS011;8836;52.272;5.134;2022-07-23T01:24:47;1.92;;;1.30;;
17436;SDS011;8836;52.272;5.134;2022-07-23T01:27:14;1.77;;;1.08;;
17436;SDS011;8836;52.272;5.134;2022-07-23T01:29:42;1.52;;;1.20;;
17436;SDS011;8836;52.272;5.134;2022-07-23T01:32:09;1.90;;;1.10;;
17436;SDS011;8836;52.272;5.134;2022-07-23T01:34:36;1.20;;;1.10;;
17436;SDS011;8836;52.272;5.134;2022-07-23T01:37:04;1.73;;;1.30;;
17436;SDS011;8836;52.272;5.134;2022-07-23T01:39:31;1.85;;;1.08;;
17436;SDS011;8836;52.272;5.134;2022-07-23T01:42:00;1.65;;;1.10;;
17436;SDS011;8836;52.272;5.134;2022-07-23T01:44:26;2.75;;;1.20;;
17436;SDS011;8836;52.272;5.134;2022-07-23T01:46:53;2.08;;;1.25;;
17436;SDS011;8836;52.272;5.134;2022-07-23T01:49:22;1.63;;;1.00;;
17436;SDS011;8836;52.272;5.134;2022-07-23T01:51:49;2.20;;;1.35;;
17436;SDS011;8836;52.272;5.134;2022-07-23T01:54:25;1.35;;;1.00;;
17436;SDS011;8836;52.272;5.134;2022-07-23T01:56:52;1.58;;;1.25;;
17436;SDS011;8836;52.272;5.134;2022-07-23T01:59:21;1.90;;;0.90;;
17436;SDS011;8836;52.272;5.134;2022-07-23T02:01:49;1.33;;;1.20;;
17436;SDS011;8836;52.272;5.134;2022-07-23T02:04:16;2.28;;;1.17;;
17436;SDS011;8836;52.272;5.134;2022-07-23T02:06:43;1.40;;;1.00;;
17436;SDS011;8836;52.272;5.134;2022-07-23T02:09:10;1.40;;;1.00;;
17436;SDS011;8836;52.272;5.134;2022-07-23T02:11:37;1.00;;;1.00;;
17436;SDS011;8836;52.272;5.134;2022-07-23T02:14:04;1.02;;;0.90;;
17436;SDS011;8836;52.272;5.134;2022-07-23T02:16:33;1.35;;;0.90;;
17436;SDS011;8836;52.272;5.134;2022-07-23T02:19:00;1.45;;;1.10;;
17436;SDS011;8836;52.272;5.134;2022-07-23T02:21:27;1.58;;;1.05;;
17436;SDS011;8836;52.272;5.134;2022-07-23T02:23:54;1.67;;;0.80;;
17436;SDS011;8836;52.272;5.134;2022-07-23T02:26:21;1.38;;;0.80;;
17436;SDS011;8836;52.272;5.134;2022-07-23T02:28:47;1.15;;;0.80;;
17436;SDS011;8836;52.272;5.134;2022-07-23T02:31:14;1.10;;;1.00;;
17436;SDS011;8836;52.272;5.134;2022-07-23T02:33:43;1.45;;;0.90;;
17436;SDS011;8836;52.272;5.134;2022-07-23T02:36:10;0.82;;;0.80;;
17436;SDS011;8836;52.272;5.134;2022-07-23T02:38:36;1.13;;;0.90;;
17436;SDS011;8836;52.272;5.134;2022-07-23T02:41:03;1.30;;;1.20;;
17436;SDS011;8836;52.272;5.134;2022-07-23T02:43:30;0.98;;;0.90;;
17436;SDS011;8836;52.272;5.134;2022-07-23T02:45:57;0.95;;;0.70;;
17436;SDS011;8836;52.272;5.134;2022-07-23T02:48:24;0.93;;;0.90;;
17436;SDS011;8836;52.272;5.134;2022-07-23T02:50:52;0.80;;;0.80;;
17436;SDS011;8836;52.272;5.134;2022-07-23T02:53:21;1.48;;;1.00;;
17436;SDS011;8836;52.272;5.134;2022-07-23T02:55:48;1.60;;;1.00;;
17436;SDS011;8836;52.272;5.134;2022-07-23T02:58:15;0.93;;;0.82;;
17436;SDS011;8836;52.272;5.134;2022-07-23T03:00:42;0.57;;;0.57;;
17436;SDS011;8836;52.272;5.134;2022-07-23T03:03:09;0.80;;;0.80;;
17436;SDS011;8836;52.272;5.134;2022-07-23T03:05:36;1.02;;;0.77;;
17436;SDS011;8836;52.272;5.134;2022-07-23T03:08:05;1.60;;;1.15;;
17436;SDS011;8836;52.272;5.134;2022-07-23T03:10:31;2.17;;;1.10;;
17436;SDS011;8836;52.272;5.134;2022-07-23T03:12:58;0.50;;;0.50;;
17436;SDS011;8836;52.272;5.134;2022-07-23T03:15:25;1.50;;;0.70;;
17436;SDS011;8836;52.272;5.134;2022-07-23T03:17:52;0.77;;;0.77;;
17436;SDS011;8836;52.272;5.134;2022-07-23T03:20:19;0.70;;;0.70;;
17436;SDS011;8836;52.272;5.134;2022-07-23T03:22:46;0.80;;;0.80;;
17436;SDS011;8836;52.272;5.134;2022-07-23T03:25:14;0.80;;;0.80;;
17436;SDS011;8836;52.272;5.134;2022-07-23T03:27:41;0.70;;;0.70;;
17436;SDS011;8836;52.272;5.134;2022-07-23T03:30:10;0.70;;;0.70;;
17436;SDS011;8836;52.272;5.134;2022-07-23T03:32:38;1.00;;;0.90;;
17436;SDS011;8836;52.272;5.134;2022-07-23T03:35:05;0.90;;;0.90;;
17436;SDS011;8836;52.272;5.134;2022-07-23T03:37:33;1.17;;;0.90;;
17436;SDS011;8836;52.272;5.134;2022-07-23T03:40:00;0.85;;;0.75;;
17436;SDS011;8836;52.272;5.134;2022-07-23T03:42:28;0.95;;;0.80;;
17436;SDS011;8836;52.272;5.134;2022-07-23T03:44:55;1.08;;;0.80;;
17436;SDS011;8836;52.272;5.134;2022-07-23T03:47:22;0.65;;;0.63;;
17436;SDS011;8836;52.272;5.134;2022-07-23T03:49:49;1.20;;;0.90;;
17436;SDS011;8836;52.272;5.134;2022-07-23T03:52:16;0.85;;;0.85;;
17436;SDS011;8836;52.272;5.134;2022-07-23T03:54:43;1.25;;;0.80;;
17436;SDS011;8836;52.272;5.134;2022-07-23T03:57:10;0.95;;;0.80;;
17436;SDS011;8836;52.272;5.134;2022-07-23T03:59:38;0.68;;;0.68;;
17436;SDS011;8836;52.272;5.134;2022-07-23T04:02:05;0.68;;;0.68;;
17436;SDS011;8836;52.272;5.134;2022-07-23T04:04:32;0.80;;;0.80;;
17436;SDS011;8836;52.272;5.134;2022-07-23T04:06:58;0.63;;;0.52;;
17436;SDS011;8836;52.272;5.134;2022-07-23T04:09:26;0.80;;;0.80;;
17436;SDS011;8836;52.272;5.134;2022-07-23T04:11:53;1.20;;;0.95;;
17436;SDS011;8836;52.272;5.134;2022-07-23T04:14:20;1.10;;;1.00;;
17436;SDS011;8836;52.272;5.134;2022-07-23T04:16:48;1.15;;;0.85;;
17436;SDS011;8836;52.272;5.134;2022-07-23T04:19:15;0.80;;;0.77;;
17436;SDS011;8836;52.272;5.134;2022-07-23T04:21:42;1.27;;;0.80;;
17436;SDS011;8836;52.272;5.134;2022-07-23T04:24:09;0.70;;;0.60;;
17436;SDS011;8836;52.272;5.134;2022-07-23T04:26:35;1.30;;;0.60;;
17436;SDS011;8836;52.272;5.134;2022-07-23T04:29:02;0.85;;;0.70;;
17436;SDS011;8836;52.272;5.134;2022-07-23T04:31:29;0.60;;;0.60;;
17436;SDS011;8836;52.272;5.134;2022-07-23T04:33:57;0.77;;;0.70;;
17436;SDS011;8836;52.272;5.134;2022-07-23T04:36:25;0.70;;;0.70;;
17436;SDS011;8836;52.272;5.134;2022-07-23T04:38:52;0.73;;;0.57;;
17436;SDS011;8836;52.272;5.134;2022-07-23T04:41:19;1.30;;;0.75;;
17436;SDS011;8836;52.272;5.134;2022-07-23T04:43:46;0.60;;;0.60;;
17436;SDS011;8836;52.272;5.134;2022-07-23T04:46:13;1.40;;;0.80;;
17436;SDS011;8836;52.272;5.134;2022-07-23T04:48:40;0.70;;;0.70;;
17436;SDS011;8836;52.272;5.134;2022-07-23T04:51:08;0.68;;;0.68;;
17436;SDS011;8836;52.272;5.134;2022-07-23T04:53:36;0.80;;;0.80;;
17436;SDS011;8836;52.272;5.134;2022-07-23T04:56:04;1.13;;;0.88;;
17436;SDS011;8836;52.272;5.134;2022-07-23T04:58:32;0.60;;;0.60;;
17436;SDS011;8836;52.272;5.134;2022-07-23T05:00:59;1.52;;;0.73;;
17436;SDS011;8836;52.272;5.134;2022-07-23T05:03:26;1.10;;;0.70;;
17436;SDS011;8836;52.272;5.134;2022-07-23T05:05:53;0.90;;;0.77;;
17436;SDS011;8836;52.272;5.134;2022-07-23T05:08:21;0.73;;;0.70;;
17436;SDS011;8836;52.272;5.134;2022-07-23T05:10:49;0.60;;;0.60;;
17436;SDS011;8836;52.272;5.134;2022-07-23T05:13:16;1.02;;;0.70;;
17436;SDS011;8836;52.272;5.134;2022-07-23T05:15:44;1.27;;;0.73;;
17436;SDS011;8836;52.272;5.134;2022-07-23T05:18:12;0.75;;;0.70;;
17436;SDS011;8836;52.272;5.134;2022-07-23T05:20:39;1.80;;;0.90;;
17436;SDS011;8836;52.272;5.134;2022-07-23T05:23:06;1.55;;;0.80;;
17436;SDS011;8836;52.272;5.134;2022-07-23T05:25:36;0.90;;;0.70;;
17436;SDS011;8836;52.272;5.134;2022-07-23T05:28:03;0.98;;;0.80;;
17436;SDS011;8836;52.272;5.134;2022-07-23T05:30:30;1.13;;;0.90;;
17436;SDS011;8836;52.272;5.134;2022-07-23T05:32:57;1.00;;;0.70;;
17436;SDS011;8836;52.272;5.134;2022-07-23T05:35:24;1.27;;;0.80;;
17436;SDS011;8836;52.272;5.134;2022-07-23T05:37:52;1.23;;;0.80;;
17436;SDS011;8836;52.272;5.134;2022-07-23T05:40:18;1.17;;;0.80;;
17436;SDS011;8836;52.272;5.134;2022-07-23T05:42:47;1.02;;;0.80;;
17436;SDS011;8836;52.272;5.134;2022-07-23T05:45:14;1.10;;;0.85;;
17436;SDS011;8836;52.272;5.134;2022-07-23T05:47:41;1.00;;;0.90;;
17436;SDS011;8836;52.272;5.134;2022-07-23T05:50:09;1.25;;;0.95;;
17436;SDS011;8836;52.272;5.134;2022-07-23T05:52:37;1.40;;;0.90;;
17436;SDS011;8836;52.272;5.134;2022-07-23T05:55:05;0.77;;;0.60;;
17436;SDS011;8836;52.272;5.134;2022-07-23T05:57:35;1.08;;;0.98;;
17436;SDS011;8836;52.272;5.134;2022-07-23T06:00:04;1.20;;;0.70;;
17436;SDS011;8836;52.272;5.134;2022-07-23T06:02:33;0.82;;;0.65;;
17436;SDS011;8836;52.272;5.134;2022-07-23T06:05:00;1.25;;;0.90;;
17436;SDS011;8836;52.272;5.134;2022-07-23T06:07:27;0.98;;;0.70;;
17436;SDS011;8836;52.272;5.134;2022-07-23T06:09:54;0.75;;;0.73;;
17436;SDS011;8836;52.272;5.134;2022-07-23T06:12:21;1.10;;;0.80;;
17436;SDS011;8836;52.272;5.134;2022-07-23T06:14:47;0.52;;;0.52;;
17436;SDS011;8836;52.272;5.134;2022-07-23T06:17:18;0.60;;;0.60;;
17436;SDS011;8836;52.272;5.134;2022-07-23T06:19:45;0.88;;;0.60;;
17436;SDS011;8836;52.272;5.134;2022-07-23T06:22:11;0.95;;;0.68;;
17436;SDS011;8836;52.272;5.134;2022-07-23T06:24:38;0.60;;;0.60;;
17436;SDS011;8836;52.272;5.134;2022-07-23T06:27:05;0.70;;;0.70;;
17436;SDS011;8836;52.272;5.134;2022-07-23T06:29:32;1.17;;;0.80;;
17436;SDS011;8836;52.272;5.134;2022-07-23T06:31:59;1.27;;;0.90;;
17436;SDS011;8836;52.272;5.134;2022-07-23T06:34:28;1.75;;;0.68;;
17436;SDS011;8836;52.272;5.134;2022-07-23T06:36:54;0.90;;;0.90;;
17436;SDS011;8836;52.272;5.134;2022-07-23T06:39:21;0.75;;;0.65;;
17436;SDS011;8836;52.272;5.134;2022-07-23T06:41:48;0.70;;;0.70;;
17436;SDS011;8836;52.272;5.134;2022-07-23T06:44:15;1.00;;;0.80;;
17436;SDS011;8836;52.272;5.134;2022-07-23T06:46:43;0.73;;;0.60;;
17436;SDS011;8836;52.272;5.134;2022-07-23T06:49:10;1.85;;;0.70;;
17436;SDS011;8836;52.272;5.134;2022-07-23T06:51:38;1.75;;;0.70;;
17436;SDS011;8836;52.272;5.134;2022-07-23T06:54:05;4.47;;;1.27;;
17436;SDS011;8836;52.272;5.134;2022-07-23T06:56:32;2.25;;;1.05;;
17436;SDS011;8836;52.272;5.134;2022-07-23T06:58:59;3.67;;;0.90;;
17436;SDS011;8836;52.272;5.134;2022-07-23T07:01:26;0.98;;;0.80;;
17436;SDS011;8836;52.272;5.134;2022-07-23T07:03:52;0.85;;;0.80;;
17436;SDS011;8836;52.272;5.134;2022-07-23T07:06:19;1.80;;;0.50;;
17436;SDS011;8836;52.272;5.134;2022-07-23T07:08:48;0.90;;;0.60;;
17436;SDS011;8836;52.272;5.134;2022-07-23T07:11:15;2.08;;;0.80;;
17436;SDS011;8836;52.272;5.134;2022-07-23T07:13:42;1.65;;;1.00;;
17436;SDS011;8836;52.272;5.134;2022-07-23T07:16:08;3.35;;;1.48;;
17436;SDS011;8836;52.272;5.134;2022-07-23T07:18:35;2.75;;;1.75;;
17436;SDS011;8836;52.272;5.134;2022-07-23T07:21:02;3.13;;;1.55;;
17436;SDS011;8836;52.272;5.134;2022-07-23T07:23:29;2.97;;;1.50;;
17436;SDS011;8836;52.272;5.134;2022-07-23T07:25:57;1.77;;;1.27;;
17436;SDS011;8836;52.272;5.134;2022-07-23T07:28:24;1.35;;;1.10;;
17436;SDS011;8836;52.272;5.134;2022-07-23T07:30:51;2.20;;;1.10;;
17436;SDS011;8836;52.272;5.134;2022-07-23T07:33:18;2.47;;;1.10;;
17436;SDS011;8836;52.272;5.134;2022-07-23T07:35:46;2.83;;;1.00;;
17436;SDS011;8836;52.272;5.134;2022-07-23T07:38:13;1.58;;;0.90;;
17436;SDS011;8836;52.272;5.134;2022-07-23T07:40:40;3.72;;;1.45;;
17436;SDS011;8836;52.272;5.134;2022-07-23T07:43:08;2.50;;;1.63;;
17436;SDS011;8836;52.272;5.134;2022-07-23T07:45:35;2.50;;;1.92;;
17436;SDS011;8836;52.272;5.134;2022-07-23T07:48:02;2.70;;;2.20;;
17436;SDS011;8836;52.272;5.134;2022-07-23T07:50:30;2.65;;;2.30;;
17436;SDS011;8836;52.272;5.134;2022-07-23T07:52:57;2.30;;;1.30;;
17436;SDS011;8836;52.272;5.134;2022-07-23T07:55:24;1.98;;;1.30;;
17436;SDS011;8836;52.272;5.134;2022-07-23T07:57:52;1.80;;;1.40;;
17436;SDS011;8836;52.272;5.134;2022-07-23T08:00:20;2.08;;;1.20;;
17436;SDS011;8836;52.272;5.134;2022-07-23T08:02:48;1.33;;;1.10;;
17436;SDS011;8836;52.272;5.134;2022-07-23T08:05:18;1.75;;;1.15;;
17436;SDS011;8836;52.272;5.134;2022-07-23T08:07:47;2.33;;;1.35;;
17436;SDS011;8836;52.272;5.134;2022-07-23T08:10:14;1.73;;;1.00;;
17436;SDS011;8836;52.272;5.134;2022-07-23T08:12:42;2.28;;;1.23;;
17436;SDS011;8836;52.272;5.134;2022-07-23T08:15:12;2.22;;;1.10;;
17436;SDS011;8836;52.272;5.134;2022-07-23T08:17:43;1.25;;;0.90;;
17436;SDS011;8836;52.272;5.134;2022-07-23T08:20:12;1.88;;;0.98;;
17436;SDS011;8836;52.272;5.134;2022-07-23T08:22:45;2.83;;;1.10;;
17436;SDS011;8836;52.272;5.134;2022-07-23T08:25:15;2.22;;;1.17;;
17436;SDS011;8836;52.272;5.134;2022-07-23T08:27:46;2.67;;;0.90;;
17436;SDS011;8836;52.272;5.134;2022-07-23T08:30:14;1.98;;;1.17;;
17436;SDS011;8836;52.272;5.134;2022-07-23T08:32:50;1.55;;;1.20;;
17436;SDS011;8836;52.272;5.134;2022-07-23T08:35:24;1.63;;;1.00;;
17436;SDS011;8836;52.272;5.134;2022-07-23T08:37:53;1.85;;;0.95;;
17436;SDS011;8836;52.272;5.134;2022-07-23T08:40:21;2.47;;;1.00;;
17436;SDS011;8836;52.272;5.134;2022-07-23T08:42:51;3.00;;;1.20;;
17436;SDS011;8836;52.272;5.134;2022-07-23T08:45:19;2.97;;;1.08;;
17436;SDS011;8836;52.272;5.134;2022-07-23T08:47:50;3.60;;;1.20;;
17436;SDS011;8836;52.272;5.134;2022-07-23T08:50:20;2.92;;;1.10;;
17436;SDS011;8836;52.272;5.134;2022-07-23T08:52:49;1.25;;;0.80;;
17436;SDS011;8836;52.272;5.134;2022-07-23T08:55:17;2.88;;;1.13;;
17436;SDS011;8836;52.272;5.134;2022-07-23T08:57:46;0.63;;;0.63;;
17436;SDS011;8836;52.272;5.134;2022-07-23T09:00:16;2.42;;;0.98;;
17436;SDS011;8836;52.272;5.134;2022-07-23T09:02:45;2.00;;;0.98;;
17436;SDS011;8836;52.272;5.134;2022-07-23T09:05:15;2.30;;;1.00;;
17436;SDS011;8836;52.272;5.134;2022-07-23T09:10:44;1.20;;;0.88;;
17436;SDS011;8836;52.272;5.134;2022-07-23T09:13:23;2.42;;;1.20;;
17436;SDS011;8836;52.272;5.134;2022-07-23T09:15:56;1.85;;;0.90;;
17436;SDS011;8836;52.272;5.134;2022-07-23T09:18:29;1.25;;;0.70;;
17436;SDS011;8836;52.272;5.134;2022-07-23T09:21:06;1.48;;;1.00;;
17436;SDS011;8836;52.272;5.134;2022-07-23T09:23:40;1.58;;;0.93;;
17436;SDS011;8836;52.272;5.134;2022-07-23T09:26:25;1.27;;;1.17;;
17436;SDS011;8836;52.272;5.134;2022-07-23T09:29:04;1.70;;;1.00;;
17436;SDS011;8836;52.272;5.134;2022-07-23T09:31:42;1.52;;;1.02;;
17436;SDS011;8836;52.272;5.134;2022-07-23T09:34:17;2.78;;;1.25;;
17436;SDS011;8836;52.272;5.134;2022-07-23T09:36:49;2.60;;;1.20;;
17436;SDS011;8836;52.272;5.134;2022-07-23T09:39:22;1.20;;;0.90;;
17436;SDS011;8836;52.272;5.134;2022-07-23T09:41:53;2.33;;;1.23;;
17436;SDS011;8836;52.272;5.134;2022-07-23T09:44:20;2.83;;;1.20;;
17436;SDS011;8836;52.272;5.134;2022-07-23T09:46:48;2.15;;;1.10;;
17436;SDS011;8836;52.272;5.134;2022-07-23T09:49:17;1.90;;;1.13;;
17436;SDS011;8836;52.272;5.134;2022-07-23T09:51:50;1.33;;;1.10;;
17436;SDS011;8836;52.272;5.134;2022-07-23T09:54:20;1.33;;;1.00;;
17436;SDS011;8836;52.272;5.134;2022-07-23T09:56:51;1.27;;;0.80;;
17436;SDS011;8836;52.272;5.134;2022-07-23T09:59:20;1.75;;;0.93;;
17436;SDS011;8836;52.272;5.134;2022-07-23T10:01:51;1.27;;;1.10;;
17436;SDS011;8836;52.272;5.134;2022-07-23T10:04:22;3.55;;;1.20;;
17436;SDS011;8836;52.272;5.134;2022-07-23T10:06:53;2.30;;;0.88;;
17436;SDS011;8836;52.272;5.134;2022-07-23T10:09:23;1.63;;;0.95;;
17436;SDS011;8836;52.272;5.134;2022-07-23T10:11:55;1.20;;;0.88;;
17436;SDS011;8836;52.272;5.134;2022-07-23T10:14:35;1.42;;;0.90;;
17436;SDS011;8836;52.272;5.134;2022-07-23T10:17:05;0.70;;;0.70;;
17436;SDS011;8836;52.272;5.134;2022-07-23T10:19:33;1.10;;;1.00;;
17436;SDS011;8836;52.272;5.134;2022-07-23T10:22:03;1.55;;;0.90;;
17436;SDS011;8836;52.272;5.134;2022-07-23T10:24:52;1.88;;;1.13;;
17436;SDS011;8836;52.272;5.134;2022-07-23T10:30:36;0.80;;;0.80;;
17436;SDS011;8836;52.272;5.134;2022-07-23T10:33:18;2.45;;;1.38;;
17436;SDS011;8836;52.272;5.134;2022-07-23T10:36:00;1.80;;;1.05;;
17436;SDS011;8836;52.272;5.134;2022-07-23T10:38:37;3.95;;;2.17;;
17436;SDS011;8836;52.272;5.134;2022-07-23T10:41:29;2.45;;;1.75;;
17436;SDS011;8836;52.272;5.134;2022-07-23T10:44:08;5.45;;;2.65;;
17436;SDS011;8836;52.272;5.134;2022-07-23T10:49:33;3.20;;;1.80;;
17436;SDS011;8836;52.272;5.134;2022-07-23T10:52:17;4.85;;;3.00;;
17436;SDS011;8836;52.272;5.134;2022-07-23T10:54:52;9.43;;;5.88;;
17436;SDS011;8836;52.272;5.134;2022-07-23T10:57:22;3.53;;;1.73;;
17436;SDS011;8836;52.272;5.134;2022-07-23T11:02:47;3.15;;;2.00;;
17436;SDS011;8836;52.272;5.134;2022-07-23T11:05:17;4.55;;;2.58;;
17436;SDS011;8836;52.272;5.134;2022-07-23T11:10:48;4.20;;;2.30;;
17436;SDS011;8836;52.272;5.134;2022-07-23T11:13:37;1.52;;;1.30;;
17436;SDS011;8836;52.272;5.134;2022-07-23T11:16:21;2.90;;;1.60;;
17436;SDS011;8836;52.272;5.134;2022-07-23T11:18:54;1.92;;;1.60;;
17436;SDS011;8836;52.272;5.134;2022-07-23T11:21:45;1.75;;;1.38;;
17436;SDS011;8836;52.272;5.134;2022-07-23T11:24:15;3.38;;;1.52;;
17436;SDS011;8836;52.272;5.134;2022-07-23T11:26:47;2.05;;;1.40;;
17436;SDS011;8836;52.272;5.134;2022-07-23T11:29:39;1.40;;;1.30;;
17436;SDS011;8836;52.272;5.134;2022-07-23T11:35:18;2.60;;;1.30;;
17436;SDS011;8836;52.272;5.134;2022-07-23T11:37:52;1.40;;;1.30;;
17436;SDS011;8836;52.272;5.134;2022-07-23T11:40:24;1.13;;;1.00;;
17436;SDS011;8836;52.272;5.134;2022-07-23T11:42:54;1.85;;;1.00;;
17436;SDS011;8836;52.272;5.134;2022-07-23T11:45:25;1.42;;;1.20;;
17436;SDS011;8836;52.272;5.134;2022-07-23T11:47:58;2.58;;;1.40;;
17436;SDS011;8836;52.272;5.134;2022-07-23T11:50:25;2.42;;;1.38;;
17436;SDS011;8836;52.272;5.134;2022-07-23T11:52:52;1.92;;;1.33;;
17436;SDS011;8836;52.272;5.134;2022-07-23T11:55:20;1.92;;;1.30;;
17436;SDS011;8836;52.272;5.134;2022-07-23T11:57:48;1.40;;;1.00;;
17436;SDS011;8836;52.272;5.134;2022-07-23T12:00:20;1.50;;;1.40;;
17436;SDS011;8836;52.272;5.134;2022-07-23T12:02:51;2.03;;;1.27;;
17436;SDS011;8836;52.272;5.134;2022-07-23T12:05:20;2.35;;;1.10;;
17436;SDS011;8836;52.272;5.134;2022-07-23T12:07:50;2.28;;;1.10;;
17436;SDS011;8836;52.272;5.134;2022-07-23T12:10:21;1.40;;;1.30;;
17436;SDS011;8836;52.272;5.134;2022-07-23T12:12:51;2.42;;;1.30;;
17436;SDS011;8836;52.272;5.134;2022-07-23T12:15:22;2.47;;;1.80;;
17436;SDS011;8836;52.272;5.134;2022-07-23T12:17:52;1.60;;;1.48;;
17436;SDS011;8836;52.272;5.134;2022-07-23T12:20:21;2.60;;;1.45;;
17436;SDS011;8836;52.272;5.134;2022-07-23T12:22:51;1.92;;;1.50;;
17436;SDS011;8836;52.272;5.134;2022-07-23T12:25:22;1.85;;;1.40;;
17436;SDS011;8836;52.272;5.134;2022-07-23T12:27:59;1.50;;;1.40;;
17436;SDS011;8836;52.272;5.134;2022-07-23T12:30:31;2.28;;;1.50;;
17436;SDS011;8836;52.272;5.134;2022-07-23T12:33:03;1.50;;;1.20;;
17436;SDS011;8836;52.272;5.134;2022-07-23T12:35:33;1.88;;;1.55;;
17436;SDS011;8836;52.272;5.134;2022-07-23T12:38:04;2.10;;;1.42;;
17436;SDS011;8836;52.272;5.134;2022-07-23T12:40:33;2.78;;;1.50;;
17436;SDS011;8836;52.272;5.134;2022-07-23T12:43:04;2.50;;;1.55;;
17436;SDS011;8836;52.272;5.134;2022-07-23T12:45:45;2.42;;;1.42;;
17436;SDS011;8836;52.272;5.134;2022-07-23T12:48:16;1.50;;;1.40;;
17436;SDS011;8836;52.272;5.134;2022-07-23T12:50:50;2.88;;;1.80;;
17436;SDS011;8836;52.272;5.134;2022-07-23T12:53:20;1.50;;;1.40;;
17436;SDS011;8836;52.272;5.134;2022-07-23T12:55:50;1.55;;;1.45;;
17436;SDS011;8836;52.272;5.134;2022-07-23T12:58:25;3.47;;;1.50;;
17436;SDS011;8836;52.272;5.134;2022-07-23T13:00:58;1.35;;;1.25;;
17436;SDS011;8836;52.272;5.134;2022-07-23T13:03:31;1.67;;;1.40;;
17436;SDS011;8836;52.272;5.134;2022-07-23T13:06:07;2.25;;;1.67;;
17436;SDS011;8836;52.272;5.134;2022-07-23T13:08:37;2.17;;;1.85;;
17436;SDS011;8836;52.272;5.134;2022-07-23T13:11:06;4.90;;;2.28;;
17436;SDS011;8836;52.272;5.134;2022-07-23T13:13:33;1.50;;;1.40;;
17436;SDS011;8836;52.272;5.134;2022-07-23T13:16:03;1.70;;;1.40;;
17436;SDS011;8836;52.272;5.134;2022-07-23T13:18:31;1.75;;;1.38;;
17436;SDS011;8836;52.272;5.134;2022-07-23T13:20:59;3.20;;;1.88;;
17436;SDS011;8836;52.272;5.134;2022-07-23T13:23:27;2.08;;;1.73;;
17436;SDS011;8836;52.272;5.134;2022-07-23T13:25:54;1.90;;;1.60;;
17436;SDS011;8836;52.272;5.134;2022-07-23T13:28:22;1.38;;;1.27;;
17436;SDS011;8836;52.272;5.134;2022-07-23T13:30:50;1.73;;;1.63;;
17436;SDS011;8836;52.272;5.134;2022-07-23T13:33:20;2.03;;;1.48;;
17436;SDS011;8836;52.272;5.134;2022-07-23T13:35:50;1.85;;;1.50;;
17436;SDS011;8836;52.272;5.134;2022-07-23T13:38:19;1.35;;;1.20;;
17436;SDS011;8836;52.272;5.134;2022-07-23T13:40:48;1.38;;;1.27;;
17436;SDS011;8836;52.272;5.134;2022-07-23T13:43:17;1.35;;;1.00;;
17436;SDS011;8836;52.272;5.134;2022-07-23T13:45:47;2.65;;;1.25;;
17436;SDS011;8836;52.272;5.134;2022-07-23T13:48:15;1.00;;;1.00;;
17436;SDS011;8836;52.272;5.134;2022-07-23T13:50:44;2.13;;;1.40;;
17436;SDS011;8836;52.272;5.134;2022-07-23T13:53:14;1.60;;;1.50;;
17436;SDS011;8836;52.272;5.134;2022-07-23T13:55:44;1.92;;;1.50;;
17436;SDS011;8836;52.272;5.134;2022-07-23T13:58:13;1.60;;;1.50;;
17436;SDS011;8836;52.272;5.134;2022-07-23T14:00:41;1.20;;;1.10;;
17436;SDS011;8836;52.272;5.134;2022-07-23T14:03:11;1.40;;;1.25;;
17436;SDS011;8836;52.272;5.134;2022-07-23T14:05:39;2.08;;;1.27;;
17436;SDS011;8836;52.272;5.134;2022-07-23T14:08:08;1.38;;;1.27;;
17436;SDS011;8836;52.272;5.134;2022-07-23T14:10:35;1.20;;;1.10;;
17436;SDS011;8836;52.272;5.134;2022-07-23T14:13:02;1.65;;;1.55;;
17436;SDS011;8836;52.272;5.134;2022-07-23T14:15:30;1.33;;;1.23;;
17436;SDS011;8836;52.272;5.134;2022-07-23T14:17:59;1.33;;;1.23;;
17436;SDS011;8836;52.272;5.134;2022-07-23T14:20:26;1.55;;;1.13;;
17436;SDS011;8836;52.272;5.134;2022-07-23T14:22:53;1.90;;;1.30;;
17436;SDS011;8836;52.272;5.134;2022-07-23T14:25:24;1.20;;;1.10;;
17436;SDS011;8836;52.272;5.134;2022-07-23T14:27:51;1.65;;;1.10;;
17436;SDS011;8836;52.272;5.134;2022-07-23T14:30:19;1.50;;;1.40;;
17436;SDS011;8836;52.272;5.134;2022-07-23T14:32:49;1.08;;;1.08;;
17436;SDS011;8836;52.272;5.134;2022-07-23T14:35:16;1.55;;;1.23;;
17436;SDS011;8836;52.272;5.134;2022-07-23T14:37:44;1.98;;;1.75;;
17436;SDS011;8836;52.272;5.134;2022-07-23T14:40:11;2.92;;;2.00;;
17436;SDS011;8836;52.272;5.134;2022-07-23T14:42:39;2.55;;;1.73;;
17436;SDS011;8836;52.272;5.134;2022-07-23T14:45:07;1.73;;;1.52;;
17436;SDS011;8836;52.272;5.134;2022-07-23T14:47:34;1.50;;;1.30;;
17436;SDS011;8836;52.272;5.134;2022-07-23T14:50:01;1.60;;;1.40;;
17436;SDS011;8836;52.272;5.134;2022-07-23T14:52:29;1.75;;;1.20;;
17436;SDS011;8836;52.272;5.134;2022-07-23T14:54:55;2.28;;;1.48;;
17436;SDS011;8836;52.272;5.134;2022-07-23T14:57:23;2.35;;;1.60;;
17436;SDS011;8836;52.272;5.134;2022-07-23T14:59:51;2.65;;;1.67;;
17436;SDS011;8836;52.272;5.134;2022-07-23T15:02:18;1.80;;;1.40;;
17436;SDS011;8836;52.272;5.134;2022-07-23T15:04:45;1.45;;;1.35;;
17436;SDS011;8836;52.272;5.134;2022-07-23T15:07:12;3.90;;;1.60;;
17436;SDS011;8836;52.272;5.134;2022-07-23T15:09:39;1.98;;;1.60;;
17436;SDS011;8836;52.272;5.134;2022-07-23T15:12:06;2.17;;;1.83;;
17436;SDS011;8836;52.272;5.134;2022-07-23T15:14:33;3.83;;;1.77;;
17436;SDS011;8836;52.272;5.134;2022-07-23T15:17:01;2.13;;;1.90;;
17436;SDS011;8836;52.272;5.134;2022-07-23T15:19:28;2.15;;;1.58;;
17436;SDS011;8836;52.272;5.134;2022-07-23T15:21:55;1.85;;;1.65;;
17436;SDS011;8836;52.272;5.134;2022-07-23T15:24:24;1.98;;;1.67;;
17436;SDS011;8836;52.272;5.134;2022-07-23T15:26:51;2.20;;;1.65;;
17436;SDS011;8836;52.272;5.134;2022-07-23T15:29:18;2.50;;;1.70;;